Time;durP1;ratioP1;P1;durP2;ratioP2;P2;SDS_P1;SDS_P2;PMS_P1;PMS_P2;Temp;Humidity;BMP_temperature;BMP_pressure;BME280_temperature;BME280_humidity;BME280_pressure;Samples;Min_cycle;Max_cycle;Signal;HPM_P1;HPM_P2
2022/09/07 00:01:39;;;;;;;3.28;2.58;;;;;;;;;;5062933;28;20052;-64
2022/09/07 00:04:24;;;;;;;4.50;2.45;;;;;;;;;;5064383;28;20108;-65
2022/09/07 00:07:08;;;;;;;3.55;2.50;;;;;;;;;;5042347;28;20046;-64
2022/09/07 00:09:52;;;;;;;4.88;2.47;;;;;;;;;;5040164;28;20036;-65
2022/09/07 00:12:37;;;;;;;3.40;2.65;;;;;;;;;;5035746;28;20040;-65
2022/09/07 00:15:21;;;;;;;3.42;2.35;;;;;;;;;;5046403;28;20136;-64
2022/09/07 00:18:06;;;;;;;3.20;2.28;;;;;;;;;;5036469;28;20034;-64
2022/09/07 00:20:58;;;;;;;3.65;2.42;;;;;;;;;;5041596;28;20033;-65
2022/09/07 00:23:43;;;;;;;3.35;2.40;;;;;;;;;;5048241;28;20037;-65
2022/09/07 00:26:29;;;;;;;2.85;2.25;;;;;;;;;;5043284;28;20132;-63
2022/09/07 00:29:14;;;;;;;4.32;2.67;;;;;;;;;;5034677;28;20080;-64
2022/09/07 00:32:00;;;;;;;3.17;2.25;;;;;;;;;;5041055;28;20179;-64
2022/09/07 00:34:44;;;;;;;3.28;2.63;;;;;;;;;;5074182;28;20468;-64
2022/09/07 00:37:28;;;;;;;5.03;2.78;;;;;;;;;;5033578;28;20068;-64
2022/09/07 00:40:12;;;;;;;3.67;2.60;;;;;;;;;;5045463;28;21880;-64
2022/09/07 00:42:57;;;;;;;3.72;2.67;;;;;;;;;;5046817;28;20052;-64
2022/09/07 00:45:41;;;;;;;3.55;2.50;;;;;;;;;;5040046;28;20120;-66
2022/09/07 00:48:41;;;;;;;4.10;2.40;;;;;;;;;;5070039;28;20040;-65
2022/09/07 00:51:28;;;;;;;5.18;2.78;;;;;;;;;;5032087;28;20092;-65
2022/09/07 00:54:16;;;;;;;5.50;2.58;;;;;;;;;;5042776;28;20119;-65
2022/09/07 00:57:00;;;;;;;3.25;2.78;;;;;;;;;;5048437;28;20384;-65
2022/09/07 00:59:47;;;;;;;4.65;3.08;;;;;;;;;;5035774;28;20042;-65
2022/09/07 01:02:31;;;;;;;5.15;2.63;;;;;;;;;;5044568;28;20041;-66
2022/09/07 01:05:20;;;;;;;3.92;2.72;;;;;;;;;;5039906;28;20064;-65
2022/09/07 01:08:05;;;;;;;3.58;2.83;;;;;;;;;;5048261;28;20048;-65
2022/09/07 01:10:49;;;;;;;4.72;3.00;;;;;;;;;;5048716;28;20425;-65
2022/09/07 01:13:35;;;;;;;4.35;3.22;;;;;;;;;;5049047;28;20041;-65
2022/09/07 01:16:25;;;;;;;5.18;3.03;;;;;;;;;;5046987;28;20148;-65
2022/09/07 01:19:12;;;;;;;3.60;2.80;;;;;;;;;;5042140;28;20044;-66
2022/09/07 01:21:59;;;;;;;4.38;3.33;;;;;;;;;;5041619;28;20571;-66
2022/09/07 01:24:50;;;;;;;5.53;3.33;;;;;;;;;;5038372;28;20391;-64
2022/09/07 01:27:54;;;;;;;3.97;3.35;;;;;;;;;;5043885;28;20041;-64
2022/09/07 01:30:41;;;;;;;4.72;3.35;;;;;;;;;;5054722;28;20069;-64
2022/09/07 01:33:32;;;;;;;3.97;3.25;;;;;;;;;;5070096;28;20080;-64
2022/09/07 01:36:16;;;;;;;4.15;3.13;;;;;;;;;;5039365;28;20045;-65
2022/09/07 01:39:02;;;;;;;4.82;3.10;;;;;;;;;;5044914;28;20124;-65
2022/09/07 01:41:57;;;;;;;6.63;3.15;;;;;;;;;;5030776;28;20045;-66
2022/09/07 01:44:59;;;;;;;3.40;2.90;;;;;;;;;;5037702;28;20121;-64
2022/09/07 01:47:49;;;;;;;3.67;3.10;;;;;;;;;;5041836;28;20052;-65
2022/09/07 01:50:50;;;;;;;6.47;3.45;;;;;;;;;;5045544;28;20053;-64
2022/09/07 01:53:37;;;;;;;6.38;3.22;;;;;;;;;;5074751;28;20473;-64
2022/09/07 01:56:26;;;;;;;4.80;3.70;;;;;;;;;;5049172;28;20440;-65
2022/09/07 01:59:21;;;;;;;6.35;3.80;;;;;;;;;;5044352;28;20069;-64
2022/09/07 02:02:07;;;;;;;4.50;3.65;;;;;;;;;;5043674;28;20116;-65
2022/09/07 02:04:55;;;;;;;5.03;3.30;;;;;;;;;;5048381;28;20049;-65
2022/09/07 02:07:46;;;;;;;4.30;3.47;;;;;;;;;;5041861;28;20056;-64
2022/09/07 02:10:44;;;;;;;4.53;3.72;;;;;;;;;;5038249;28;20036;-65
2022/09/07 02:13:37;;;;;;;4.72;3.60;;;;;;;;;;5043901;28;20133;-65
2022/09/07 02:16:24;;;;;;;5.20;3.60;;;;;;;;;;5071508;28;20049;-64
2022/09/07 02:19:12;;;;;;;4.70;3.70;;;;;;;;;;5042808;28;20083;-64
2022/09/07 02:21:59;;;;;;;6.50;3.97;;;;;;;;;;5044384;28;20435;-65
2022/09/07 02:24:48;;;;;;;6.63;3.42;;;;;;;;;;5047938;28;20082;-63
2022/09/07 02:27:44;;;;;;;4.70;3.90;;;;;;;;;;5046752;28;20075;-65
2022/09/07 02:30:29;;;;;;;7.35;3.65;;;;;;;;;;5049507;28;20041;-65
2022/09/07 02:33:13;;;;;;;3.80;3.22;;;;;;;;;;5038981;28;20444;-64
2022/09/07 02:36:02;;;;;;;4.28;3.33;;;;;;;;;;5044875;28;20075;-65
2022/09/07 02:38:46;;;;;;;4.47;3.15;;;;;;;;;;5041704;28;20086;-65
2022/09/07 02:41:33;;;;;;;4.03;3.50;;;;;;;;;;5051493;28;20049;-65
2022/09/07 02:44:22;;;;;;;4.75;3.55;;;;;;;;;;5051625;28;20041;-64
2022/09/07 02:47:16;;;;;;;4.55;3.60;;;;;;;;;;5050844;28;20057;-64
2022/09/07 02:50:09;;;;;;;4.40;3.33;;;;;;;;;;5040525;28;20128;-65
2022/09/07 02:53:09;;;;;;;4.13;3.25;;;;;;;;;;5046926;28;20037;-65
2022/09/07 02:56:05;;;;;;;5.57;3.65;;;;;;;;;;5044831;28;20155;-65
2022/09/07 02:58:52;;;;;;;6.35;3.65;;;;;;;;;;5045673;28;20063;-65
2022/09/07 03:01:36;;;;;;;5.40;3.30;;;;;;;;;;5046458;28;20057;-64
2022/09/07 03:04:23;;;;;;;5.30;3.22;;;;;;;;;;5058581;28;20041;-64
2022/09/07 03:07:13;;;;;;;3.85;2.90;;;;;;;;;;5034402;28;20508;-65
2022/09/07 03:09:59;;;;;;;5.47;3.13;;;;;;;;;;5040899;28;20037;-63
2022/09/07 03:12:45;;;;;;;4.82;3.70;;;;;;;;;;5045151;28;20025;-64
2022/09/07 03:15:29;;;;;;;5.70;3.08;;;;;;;;;;5045966;28;20065;-64
2022/09/07 03:18:13;;;;;;;5.95;3.35;;;;;;;;;;5047266;28;20111;-65
2022/09/07 03:20:58;;;;;;;5.93;3.53;;;;;;;;;;5023247;28;20441;-65
2022/09/07 03:23:42;;;;;;;4.70;3.55;;;;;;;;;;5044971;28;20128;-65
2022/09/07 03:26:27;;;;;;;5.18;3.38;;;;;;;;;;5037630;28;20120;-66
2022/09/07 03:29:11;;;;;;;5.57;4.03;;;;;;;;;;5047863;28;20055;-65
2022/09/07 03:31:56;;;;;;;4.25;3.25;;;;;;;;;;5048794;28;20040;-65
2022/09/07 03:34:40;;;;;;;4.57;3.70;;;;;;;;;;5042725;28;20072;-66
2022/09/07 03:37:25;;;;;;;9.75;4.68;;;;;;;;;;5042236;28;20038;-64
2022/09/07 03:40:10;;;;;;;6.15;4.65;;;;;;;;;;5072292;28;20391;-65
2022/09/07 03:42:55;;;;;;;5.80;3.83;;;;;;;;;;5045769;28;20083;-64
2022/09/07 03:45:39;;;;;;;5.40;3.70;;;;;;;;;;5044900;28;20052;-64
2022/09/07 03:48:23;;;;;;;5.25;3.90;;;;;;;;;;5050354;28;20128;-65
2022/09/07 03:51:09;;;;;;;5.90;3.60;;;;;;;;;;5047841;28;20075;-65
2022/09/07 03:53:53;;;;;;;4.53;3.80;;;;;;;;;;5042867;28;20088;-65
2022/09/07 03:56:37;;;;;;;6.53;3.95;;;;;;;;;;5048648;28;20123;-67
2022/09/07 03:59:23;;;;;;;6.85;3.67;;;;;;;;;;5043935;28;20094;-64
2022/09/07 04:02:07;;;;;;;6.53;3.75;;;;;;;;;;5041386;28;20049;-65
2022/09/07 04:04:54;;;;;;;4.50;3.85;;;;;;;;;;5037370;28;20048;-66
2022/09/07 04:07:40;;;;;;;6.22;3.85;;;;;;;;;;5033391;28;20045;-65
2022/09/07 04:10:24;;;;;;;5.40;3.60;;;;;;;;;;5038019;28;20120;-65
2022/09/07 04:13:09;;;;;;;5.85;3.85;;;;;;;;;;5046954;28;20056;-75
2022/09/07 04:15:53;;;;;;;5.30;3.75;;;;;;;;;;5044300;28;20147;-71
2022/09/07 04:18:38;;;;;;;5.70;4.00;;;;;;;;;;5051407;28;20075;-72
2022/09/07 04:21:24;;;;;;;5.53;3.70;;;;;;;;;;5054695;28;20468;-73
2022/09/07 04:24:08;;;;;;;6.28;4.13;;;;;;;;;;5041753;28;20033;-72
2022/09/07 04:26:53;;;;;;;4.53;3.58;;;;;;;;;;5047548;28;20063;-73
2022/09/07 04:29:37;;;;;;;6.50;3.90;;;;;;;;;;5039805;28;20086;-70
2022/09/07 04:32:22;;;;;;;5.00;4.07;;;;;;;;;;5044936;28;20098;-78
2022/09/07 04:35:06;;;;;;;6.15;3.78;;;;;;;;;;5042224;28;20032;-77
2022/09/07 04:37:51;;;;;;;7.38;3.67;;;;;;;;;;5043615;28;20524;-73
2022/09/07 04:40:35;;;;;;;4.85;3.58;;;;;;;;;;5046919;28;20036;-73
2022/09/07 04:43:20;;;;;;;6.53;4.07;;;;;;;;;;5043887;28;20040;-72
2022/09/07 04:46:09;;;;;;;10.70;4.40;;;;;;;;;;5039774;28;20041;-77
2022/09/07 04:48:59;;;;;;;4.95;3.95;;;;;;;;;;5042477;28;20068;-77
2022/09/07 04:51:43;;;;;;;9.13;5.85;;;;;;;;;;5044829;28;20051;-78
2022/09/07 04:54:28;;;;;;;13.70;7.82;;;;;;;;;;5036602;28;20435;-76
2022/09/07 04:57:12;;;;;;;10.93;5.82;;;;;;;;;;5051205;28;20042;-78
2022/09/07 04:59:57;;;;;;;6.22;4.07;;;;;;;;;;5033068;28;20045;-80
2022/09/07 05:02:43;;;;;;;6.50;4.40;;;;;;;;;;5043498;28;20032;-76
2022/09/07 05:05:28;;;;;;;5.38;4.00;;;;;;;;;;5032574;28;20056;-78
2022/09/07 05:08:12;;;;;;;6.13;3.85;;;;;;;;;;5043242;28;20036;-80
2022/09/07 05:10:56;;;;;;;4.25;3.75;;;;;;;;;;5046291;28;20075;-77
2022/09/07 05:13:40;;;;;;;6.97;3.80;;;;;;;;;;5043332;28;20107;-79
2022/09/07 05:16:26;;;;;;;4.72;3.67;;;;;;;;;;5042545;28;20152;-81
2022/09/07 05:19:11;;;;;;;5.85;3.50;;;;;;;;;;5043886;28;20709;-78
2022/09/07 05:21:56;;;;;;;6.13;3.80;;;;;;;;;;5044890;28;20042;-78
2022/09/07 05:24:40;;;;;;;4.72;3.40;;;;;;;;;;5045031;28;20044;-78
2022/09/07 05:27:25;;;;;;;5.80;3.53;;;;;;;;;;5042296;28;20103;-77
2022/09/07 05:30:10;;;;;;;5.15;3.97;;;;;;;;;;5044722;28;20131;-79
2022/09/07 05:32:55;;;;;;;6.15;4.32;;;;;;;;;;5038341;28;20103;-78
2022/09/07 05:35:40;;;;;;;6.63;4.75;;;;;;;;;;5021736;28;20413;-79
2022/09/07 05:38:24;;;;;;;4.63;3.97;;;;;;;;;;5046693;28;20037;-78
2022/09/07 05:41:12;;;;;;;5.13;4.10;;;;;;;;;;5045888;28;20037;-77
2022/09/07 05:43:57;;;;;;;5.72;3.97;;;;;;;;;;5046110;28;20032;-78
2022/09/07 05:46:41;;;;;;;5.38;4.00;;;;;;;;;;5045461;28;20072;-77
2022/09/07 05:49:25;;;;;;;8.73;4.20;;;;;;;;;;5041774;28;20124;-78
2022/09/07 05:52:09;;;;;;;6.72;3.40;;;;;;;;;;5033581;28;20118;-79
2022/09/07 05:54:54;;;;;;;4.75;4.05;;;;;;;;;;5071593;28;20037;-79
2022/09/07 05:57:38;;;;;;;7.35;4.20;;;;;;;;;;5025855;28;20037;-81
2022/09/07 06:00:22;;;;;;;5.00;3.65;;;;;;;;;;5037606;28;20479;-80
2022/09/07 06:03:06;;;;;;;4.40;3.05;;;;;;;;;;5069485;28;20033;-80
2022/09/07 06:06:02;;;;;;;3.80;3.03;;;;;;;;;;5048442;28;20112;-79
2022/09/07 06:08:50;;;;;;;5.68;4.10;;;;;;;;;;5052815;28;20075;-78
2022/09/07 06:11:35;;;;;;;5.57;3.70;;;;;;;;;;5045256;28;20045;-77
2022/09/07 06:14:19;;;;;;;6.82;3.72;;;;;;;;;;5049216;28;20041;-79
2022/09/07 06:17:03;;;;;;;4.72;3.42;;;;;;;;;;5046434;28;20112;-78
2022/09/07 06:19:47;;;;;;;6.32;3.83;;;;;;;;;;5048160;28;20040;-79
2022/09/07 06:22:35;;;;;;;4.45;3.33;;;;;;;;;;5057049;28;20064;-79
2022/09/07 06:25:19;;;;;;;6.18;3.65;;;;;;;;;;5046572;28;20041;-77
2022/09/07 06:28:04;;;;;;;5.40;4.00;;;;;;;;;;5045482;28;20122;-76
2022/09/07 06:30:48;;;;;;;4.90;3.60;;;;;;;;;;5050292;28;20029;-76
2022/09/07 06:33:33;;;;;;;4.93;3.60;;;;;;;;;;5040851;28;20499;-75
2022/09/07 06:36:19;;;;;;;6.88;3.85;;;;;;;;;;5048313;28;20036;-76
2022/09/07 06:39:04;;;;;;;5.28;3.92;;;;;;;;;;5050469;28;20033;-75
2022/09/07 06:41:49;;;;;;;5.25;4.13;;;;;;;;;;5043667;28;20405;-75
2022/09/07 06:44:37;;;;;;;5.18;3.97;;;;;;;;;;5021772;28;20057;-76
2022/09/07 06:47:22;;;;;;;5.55;4.00;;;;;;;;;;5044084;28;20139;-76
2022/09/07 06:50:07;;;;;;;6.13;3.97;;;;;;;;;;5042133;28;20167;-58
2022/09/07 06:52:51;;;;;;;4.90;3.47;;;;;;;;;;5039358;28;20174;-58
2022/09/07 06:55:42;;;;;;;4.55;3.63;;;;;;;;;;5036899;28;20067;-59
2022/09/07 06:58:27;;;;;;;6.95;3.70;;;;;;;;;;5039469;28;20465;-74
2022/09/07 07:01:16;;;;;;;7.38;4.18;;;;;;;;;;5043349;28;20044;-73
2022/09/07 07:04:02;;;;;;;5.57;3.95;;;;;;;;;;5040132;28;20033;-74
2022/09/07 07:06:46;;;;;;;6.90;3.85;;;;;;;;;;5037563;28;20083;-74
2022/09/07 07:09:31;;;;;;;8.30;4.22;;;;;;;;;;5030974;28;20060;-73
2022/09/07 07:12:15;;;;;;;5.45;3.60;;;;;;;;;;5045269;28;20040;-80
2022/09/07 07:15:01;;;;;;;4.45;3.63;;;;;;;;;;5042089;28;20530;-67
2022/09/07 07:17:46;;;;;;;4.93;3.72;;;;;;;;;;5046495;28;20037;-76
2022/09/07 07:20:30;;;;;;;4.97;3.63;;;;;;;;;;5027830;28;20056;-74
2022/09/07 07:23:15;;;;;;;6.63;3.75;;;;;;;;;;5041783;28;20116;-73
2022/09/07 07:26:02;;;;;;;4.93;3.47;;;;;;;;;;5045751;28;20110;-74
2022/09/07 07:28:48;;;;;;;6.75;3.70;;;;;;;;;;5041140;28;20045;-74
2022/09/07 07:31:33;;;;;;;5.63;3.53;;;;;;;;;;5044920;28;20029;-74
2022/09/07 07:34:18;;;;;;;5.28;3.70;;;;;;;;;;5041516;28;20399;-74
2022/09/07 07:37:02;;;;;;;6.25;3.95;;;;;;;;;;5046866;28;20033;-75
2022/09/07 07:39:49;;;;;;;6.40;3.90;;;;;;;;;;5045872;28;20033;-77
2022/09/07 07:42:34;;;;;;;8.52;4.93;;;;;;;;;;5045978;28;20381;-77
2022/09/07 07:45:19;;;;;;;6.25;4.10;;;;;;;;;;5047312;28;20507;-78
2022/09/07 07:48:03;;;;;;;4.32;3.92;;;;;;;;;;5046183;28;20059;-74
2022/09/07 07:50:58;;;;;;;4.63;3.33;;;;;;;;;;5045579;28;20155;-74
2022/09/07 07:53:43;;;;;;;5.55;3.28;;;;;;;;;;5058132;28;20392;-73
2022/09/07 07:56:28;;;;;;;5.82;3.42;;;;;;;;;;5044623;28;20124;-55
2022/09/07 07:59:12;;;;;;;4.15;3.05;;;;;;;;;;5045352;28;20503;-75
2022/09/07 08:02:02;;;;;;;5.28;3.05;;;;;;;;;;5042577;28;20387;-76
2022/09/07 08:04:47;;;;;;;4.07;3.33;;;;;;;;;;5048103;28;20108;-79
2022/09/07 08:07:31;;;;;;;6.72;3.80;;;;;;;;;;5038831;28;20112;-74
2022/09/07 08:10:16;;;;;;;5.60;3.53;;;;;;;;;;5029866;28;20040;-76
2022/09/07 08:13:00;;;;;;;4.80;3.50;;;;;;;;;;5049306;28;20116;-78
2022/09/07 08:15:45;;;;;;;4.00;3.03;;;;;;;;;;5050287;28;20033;-79
2022/09/07 08:18:29;;;;;;;8.23;3.53;;;;;;;;;;5044951;28;20041;-76
2022/09/07 08:21:14;;;;;;;4.93;3.17;;;;;;;;;;5049810;28;20041;-77
2022/09/07 08:23:59;;;;;;;7.75;3.28;;;;;;;;;;5041263;28;20117;-77
2022/09/07 08:26:43;;;;;;;4.32;3.20;;;;;;;;;;5045328;28;20538;-78
2022/09/07 08:29:28;;;;;;;6.13;3.70;;;;;;;;;;5032713;28;20099;-80
2022/09/07 08:32:20;;;;;;;5.18;3.33;;;;;;;;;;5040471;28;20037;-78
2022/09/07 08:35:10;;;;;;;7.93;3.20;;;;;;;;;;5046807;28;20037;-76
2022/09/07 08:37:54;;;;;;;6.75;3.40;;;;;;;;;;5046877;28;20064;-75
2022/09/07 08:40:39;;;;;;;5.00;3.70;;;;;;;;;;5045680;28;20040;-77
2022/09/07 08:43:47;;;;;;;4.28;3.33;;;;;;;;;;5046965;28;20391;-75
2022/09/07 08:46:50;;;;;;;6.90;3.65;;;;;;;;;;5024074;28;20228;-75
2022/09/07 08:49:43;;;;;;;6.35;3.80;;;;;;;;;;5011824;28;20053;-71
2022/09/07 08:52:37;;;;;;;5.78;3.58;;;;;;;;;;5024653;28;20041;-70
2022/09/07 08:55:28;;;;;;;6.50;3.65;;;;;;;;;;5027148;28;20041;-70
2022/09/07 08:58:16;;;;;;;6.40;3.85;;;;;;;;;;5022636;28;20129;-69
2022/09/07 09:01:00;;;;;;;5.93;3.80;;;;;;;;;;5024483;28;20116;-71
2022/09/07 09:03:47;;;;;;;6.70;3.60;;;;;;;;;;5026416;28;20184;-69
2022/09/07 09:06:45;;;;;;;6.00;3.70;;;;;;;;;;5026512;28;20113;-71
2022/09/07 09:09:45;;;;;;;6.50;3.50;;;;;;;;;;5026253;28;20037;-70
2022/09/07 09:12:39;;;;;;;5.90;3.33;;;;;;;;;;5025421;28;20128;-70
2022/09/07 09:15:34;;;;;;;6.03;3.97;;;;;;;;;;5025999;28;20580;-69
2022/09/07 09:18:21;;;;;;;5.10;3.58;;;;;;;;;;5007258;28;20679;-72
2022/09/07 09:21:11;;;;;;;6.22;3.75;;;;;;;;;;5026300;28;20726;-70
2022/09/07 09:23:59;;;;;;;6.88;4.07;;;;;;;;;;5014869;28;20045;-70
2022/09/07 09:26:45;;;;;;;6.05;3.88;;;;;;;;;;5046380;28;20045;-71
2022/09/07 09:29:31;;;;;;;8.18;4.00;;;;;;;;;;5048256;28;20063;-71
2022/09/07 09:32:48;;;;;;;4.53;3.45;;;;;;;;;;5048096;28;20037;-70
2022/09/07 09:35:36;;;;;;;7.22;3.95;;;;;;;;;;4995783;28;20049;-69
2022/09/07 09:38:34;;;;;;;5.70;3.30;;;;;;;;;;4995495;28;20046;-69
2022/09/07 09:41:19;;;;;;;5.60;4.07;;;;;;;;;;4981780;28;20054;-69
2022/09/07 09:44:03;;;;;;;4.88;3.50;;;;;;;;;;4991355;28;20056;-69
2022/09/07 09:46:51;;;;;;;5.32;3.70;;;;;;;;;;4997756;28;20061;-68
2022/09/07 09:49:39;;;;;;;5.97;4.18;;;;;;;;;;4996022;28;20041;-69
2022/09/07 09:52:23;;;;;;;6.28;3.35;;;;;;;;;;4970238;28;20074;-70
2022/09/07 09:55:17;;;;;;;5.18;3.50;;;;;;;;;;5010602;28;20653;-70
2022/09/07 09:58:04;;;;;;;5.10;3.70;;;;;;;;;;4993765;28;20136;-72
2022/09/07 10:00:55;;;;;;;5.65;3.42;;;;;;;;;;5006721;28;20042;-74
2022/09/07 10:03:40;;;;;;;5.45;3.60;;;;;;;;;;4978479;28;20140;-75
2022/09/07 10:06:25;;;;;;;3.42;2.97;;;;;;;;;;4990858;28;20458;-76
2022/09/07 10:09:15;;;;;;;6.72;3.63;;;;;;;;;;4993843;28;20154;-76
2022/09/07 10:12:02;;;;;;;5.03;3.42;;;;;;;;;;5035808;28;20049;-76
2022/09/07 10:14:46;;;;;;;6.85;3.60;;;;;;;;;;5040285;28;20421;-75
2022/09/07 10:17:32;;;;;;;6.82;3.60;;;;;;;;;;5041262;28;20491;-75
2022/09/07 10:20:16;;;;;;;5.75;3.42;;;;;;;;;;5045609;28;20104;-75
2022/09/07 10:23:01;;;;;;;6.28;3.88;;;;;;;;;;5046800;28;20072;-76
2022/09/07 10:25:46;;;;;;;4.40;3.03;;;;;;;;;;5042386;28;20041;-74
2022/09/07 10:28:31;;;;;;;4.07;3.25;;;;;;;;;;5054281;28;20114;-75
2022/09/07 10:31:18;;;;;;;4.75;3.28;;;;;;;;;;5046944;28;20082;-75
2022/09/07 10:34:07;;;;;;;5.30;3.60;;;;;;;;;;5050403;28;20089;-75
2022/09/07 10:36:51;;;;;;;4.25;3.60;;;;;;;;;;5048265;28;20041;-76
2022/09/07 10:40:06;;;;;;;4.47;4.00;;;;;;;;;;5051514;28;20056;-73
2022/09/07 10:43:41;;;;;;;5.35;3.80;;;;;;;;;;5043424;28;20068;-74
2022/09/07 10:46:25;;;;;;;4.10;3.70;;;;;;;;;;5009869;28;20211;-75
2022/09/07 10:49:13;;;;;;;6.60;4.60;;;;;;;;;;5009921;28;20058;-75
2022/09/07 10:52:16;;;;;;;6.72;3.78;;;;;;;;;;5009565;28;20546;-76
2022/09/07 10:55:01;;;;;;;6.93;4.30;;;;;;;;;;4992285;28;20104;-74
2022/09/07 10:57:48;;;;;;;5.45;4.18;;;;;;;;;;5010716;28;20054;-74
2022/09/07 11:00:39;;;;;;;4.65;3.78;;;;;;;;;;5011954;28;20042;-73
2022/09/07 11:03:34;;;;;;;4.70;3.67;;;;;;;;;;5009802;28;20072;-74
2022/09/07 11:06:25;;;;;;;7.07;3.80;;;;;;;;;;5005657;28;20045;-74
2022/09/07 11:09:13;;;;;;;8.20;4.03;;;;;;;;;;5008312;28;20128;-73
2022/09/07 11:12:01;;;;;;;5.15;3.63;;;;;;;;;;5010405;28;20070;-72
2022/09/07 11:14:57;;;;;;;6.38;3.92;;;;;;;;;;5004687;28;20427;-73
2022/09/07 11:18:00;;;;;;;5.03;3.53;;;;;;;;;;5012148;28;20160;-72
2022/09/07 11:20:49;;;;;;;6.38;4.20;;;;;;;;;;5011043;28;20049;-73
2022/09/07 11:23:45;;;;;;;8.98;4.90;;;;;;;;;;5047703;28;20082;-73
2022/09/07 11:26:41;;;;;;;6.65;3.70;;;;;;;;;;5032427;28;20124;-72
2022/09/07 11:29:28;;;;;;;3.80;3.30;;;;;;;;;;5033013;28;20042;-73
2022/09/07 11:32:28;;;;;;;5.85;3.72;;;;;;;;;;5043522;28;20125;-74
2022/09/07 11:35:17;;;;;;;3.75;3.20;;;;;;;;;;5043580;28;20041;-73
2022/09/07 11:38:11;;;;;;;3.92;3.10;;;;;;;;;;5038381;28;20384;-73
2022/09/07 11:41:04;;;;;;;5.65;3.42;;;;;;;;;;5043330;28;20037;-75
2022/09/07 11:43:54;;;;;;;6.38;3.67;;;;;;;;;;5046548;28;20072;-72
2022/09/07 11:46:51;;;;;;;4.75;3.30;;;;;;;;;;5044271;28;20084;-72
2022/09/07 11:49:36;;;;;;;9.02;3.45;;;;;;;;;;5045719;28;20037;-73
2022/09/07 11:52:40;;;;;;;4.95;3.75;;;;;;;;;;5050343;28;20120;-73
2022/09/07 11:55:27;;;;;;;4.30;3.22;;;;;;;;;;5036438;28;20065;-73
2022/09/07 11:58:30;;;;;;;8.25;4.28;;;;;;;;;;5050305;28;20037;-73
2022/09/07 12:01:23;;;;;;;4.75;2.60;;;;;;;;;;5047960;28;20114;-73
2022/09/07 12:04:45;;;;;;;4.07;2.53;;;;;;;;;;5049913;28;20045;-73
2022/09/07 12:07:44;;;;;;;3.38;2.63;;;;;;;;;;4995383;28;20077;-73
2022/09/07 12:10:31;;;;;;;4.05;2.58;;;;;;;;;;4970483;28;20121;-72
2022/09/07 12:13:19;;;;;;;3.83;2.83;;;;;;;;;;4984177;28;20051;-72
2022/09/07 12:16:07;;;;;;;4.32;2.47;;;;;;;;;;4961230;28;20046;-73
2022/09/07 12:19:03;;;;;;;3.42;2.60;;;;;;;;;;4973959;28;20043;-73
2022/09/07 12:21:50;;;;;;;2.65;2.25;;;;;;;;;;4985666;28;20272;-74
2022/09/07 12:24:42;;;;;;;3.53;2.30;;;;;;;;;;4986242;28;20156;-72
2022/09/07 12:27:26;;;;;;;3.78;2.28;;;;;;;;;;4988145;28;20054;-73
2022/09/07 12:30:11;;;;;;;3.75;2.58;;;;;;;;;;4987450;28;20581;-73
2022/09/07 12:32:56;;;;;;;5.82;2.60;;;;;;;;;;4975962;28;20092;-75
2022/09/07 12:35:41;;;;;;;4.40;2.58;;;;;;;;;;4984973;28;20158;-70
2022/09/07 12:38:29;;;;;;;2.95;2.20;;;;;;;;;;4987601;28;20054;-73
2022/09/07 12:41:21;;;;;;;5.18;2.65;;;;;;;;;;5001913;28;20061;-75
2022/09/07 12:44:06;;;;;;;3.30;2.60;;;;;;;;;;5025477;28;20037;-74
2022/09/07 12:46:52;;;;;;;3.00;2.38;;;;;;;;;;5025782;28;20060;-72
2022/09/07 12:49:37;;;;;;;3.28;2.00;;;;;;;;;;5029207;28;20064;-72
2022/09/07 12:52:39;;;;;;;4.03;2.67;;;;;;;;;;5045043;28;20037;-71
2022/09/07 12:55:26;;;;;;;3.95;2.63;;;;;;;;;;5038649;28;20045;-71
2022/09/07 12:58:30;;;;;;;5.85;2.58;;;;;;;;;;5025650;28;20464;-71
2022/09/07 13:01:32;;;;;;;4.07;2.40;;;;;;;;;;5030845;28;20087;-72
2022/09/07 13:04:37;;;;;;;4.55;2.38;;;;;;;;;;5046516;28;20641;-70
2022/09/07 13:07:21;;;;;;;3.70;2.78;;;;;;;;;;5042241;28;20124;-71
2022/09/07 13:10:16;;;;;;;3.65;2.75;;;;;;;;;;5033574;28;20068;-72
2022/09/07 13:13:02;;;;;;;5.35;2.90;;;;;;;;;;5042404;28;20081;-71
2022/09/07 13:15:49;;;;;;;4.93;2.88;;;;;;;;;;5047593;28;20170;-73
2022/09/07 13:18:33;;;;;;;4.45;2.47;;;;;;;;;;5044119;28;20082;-73
2022/09/07 13:21:32;;;;;;;5.03;3.20;;;;;;;;;;5042724;28;20063;-73
2022/09/07 13:24:17;;;;;;;3.50;2.50;;;;;;;;;;5033199;28;20123;-72
2022/09/07 13:27:07;;;;;;;4.80;2.60;;;;;;;;;;5029540;28;20361;-73
2022/09/07 13:30:20;;;;;;;3.67;2.70;;;;;;;;;;5051077;28;20040;-71
2022/09/07 13:33:23;;;;;;;8.88;2.50;;;;;;;;;;5041188;28;20083;-63
2022/09/07 13:36:15;;;;;;;3.70;2.22;;;;;;;;;;5045935;28;20472;-63
2022/09/07 13:39:00;;;;;;;2.90;2.50;;;;;;;;;;5063713;28;20033;-63
2022/09/07 13:41:50;;;;;;;3.20;2.20;;;;;;;;;;5045685;28;20126;-63
2022/09/07 13:44:35;;;;;;;2.92;2.58;;;;;;;;;;5045857;28;20052;-63
2022/09/07 13:47:25;;;;;;;3.17;2.78;;;;;;;;;;5045834;28;20167;-64
2022/09/07 13:50:15;;;;;;;4.88;3.30;;;;;;;;;;5044396;28;20033;-64
2022/09/07 13:53:11;;;;;;;2.67;2.35;;;;;;;;;;5045574;28;20507;-62
2022/09/07 13:56:02;;;;;;;3.10;2.47;;;;;;;;;;5045003;28;20079;-65
2022/09/07 13:58:48;;;;;;;3.55;2.20;;;;;;;;;;5055964;28;20045;-63
2022/09/07 14:01:32;;;;;;;5.20;2.78;;;;;;;;;;5040647;28;20143;-63
2022/09/07 14:04:36;;;;;;;3.30;2.25;;;;;;;;;;5046765;28;20094;-62
2022/09/07 14:07:24;;;;;;;4.95;2.42;;;;;;;;;;5039705;28;20120;-63
2022/09/07 14:10:18;;;;;;;3.88;2.83;;;;;;;;;;5046965;28;20385;-63
2022/09/07 14:13:07;;;;;;;2.30;2.10;;;;;;;;;;5045841;28;20108;-63
2022/09/07 14:15:51;;;;;;;3.80;2.93;;;;;;;;;;5044021;28;20478;-64
2022/09/07 14:18:38;;;;;;;2.40;2.20;;;;;;;;;;5038956;28;20044;-64
2022/09/07 14:21:22;;;;;;;5.60;3.10;;;;;;;;;;5041325;28;20044;-65
2022/09/07 14:24:17;;;;;;;2.60;2.22;;;;;;;;;;5043546;28;20060;-66
2022/09/07 14:27:02;;;;;;;6.70;2.40;;;;;;;;;;5042572;28;21011;-62
2022/09/07 14:29:46;;;;;;;2.40;2.15;;;;;;;;;;5045335;28;20037;-61
2022/09/07 14:32:30;;;;;;;3.17;2.40;;;;;;;;;;5061100;28;20051;-64
2022/09/07 14:35:19;;;;;;;3.08;2.15;;;;;;;;;;5047925;28;20071;-62
2022/09/07 14:38:24;;;;;;;2.95;2.50;;;;;;;;;;5044085;28;20061;-60
2022/09/07 14:41:17;;;;;;;3.45;2.35;;;;;;;;;;5045146;28;20406;-61
2022/09/07 14:44:02;;;;;;;4.15;2.15;;;;;;;;;;5043814;28;20045;-63
2022/09/07 14:46:53;;;;;;;2.45;2.20;;;;;;;;;;5038541;28;20059;-63
2022/09/07 14:49:38;;;;;;;5.40;2.58;;;;;;;;;;5044494;28;20044;-63
2022/09/07 14:52:31;;;;;;;2.90;2.47;;;;;;;;;;5046953;28;20074;-63
2022/09/07 14:55:21;;;;;;;4.30;2.50;;;;;;;;;;5040401;28;20159;-63
2022/09/07 14:58:12;;;;;;;2.80;2.30;;;;;;;;;;5036584;28;20117;-64
2022/09/07 15:01:11;;;;;;;4.95;2.47;;;;;;;;;;5035728;28;20362;-65
2022/09/07 15:04:00;;;;;;;2.67;2.13;;;;;;;;;;5046610;28;20045;-66
2022/09/07 15:06:45;;;;;;;3.90;2.58;;;;;;;;;;5037012;28;20083;-68
2022/09/07 15:09:36;;;;;;;4.68;2.40;;;;;;;;;;5045338;28;20368;-68
2022/09/07 15:12:25;;;;;;;6.50;2.47;;;;;;;;;;5037080;28;20037;-67
2022/09/07 15:15:20;;;;;;;4.25;2.00;;;;;;;;;;5048659;28;20075;-65
2022/09/07 15:18:24;;;;;;;4.00;2.25;;;;;;;;;;5051242;28;20041;-64
2022/09/07 15:21:09;;;;;;;4.60;2.30;;;;;;;;;;5042619;28;20041;-64
2022/09/07 15:23:54;;;;;;;3.03;2.30;;;;;;;;;;5049573;28;20048;-63
2022/09/07 15:26:41;;;;;;;5.72;2.08;;;;;;;;;;5046802;28;20038;-64
2022/09/07 15:29:25;;;;;;;3.92;2.72;;;;;;;;;;5051019;28;20041;-63
2022/09/07 15:32:10;;;;;;;3.92;2.55;;;;;;;;;;5038296;28;20040;-63
2022/09/07 15:34:54;;;;;;;3.65;2.47;;;;;;;;;;5041927;28;20472;-63
2022/09/07 15:37:38;;;;;;;4.25;2.60;;;;;;;;;;5027219;28;20037;-64
2022/09/07 15:40:23;;;;;;;3.72;2.25;;;;;;;;;;5047574;28;20049;-63
2022/09/07 15:43:08;;;;;;;3.65;2.47;;;;;;;;;;5049344;28;20124;-63
2022/09/07 15:45:53;;;;;;;3.35;2.58;;;;;;;;;;5048981;28;20033;-64
2022/09/07 15:48:47;;;;;;;3.40;2.30;;;;;;;;;;5046191;28;20049;-63
2022/09/07 15:51:31;;;;;;;2.50;2.10;;;;;;;;;;5036355;28;20049;-64
2022/09/07 15:54:16;;;;;;;3.33;2.38;;;;;;;;;;5040223;28;20208;-63
2022/09/07 15:57:00;;;;;;;4.38;2.25;;;;;;;;;;5047673;28;20045;-63
2022/09/07 15:59:45;;;;;;;2.85;2.55;;;;;;;;;;5049381;28;20550;-64
2022/09/07 16:02:29;;;;;;;4.60;2.70;;;;;;;;;;5050012;28;20091;-63
2022/09/07 16:05:14;;;;;;;2.83;2.50;;;;;;;;;;5033407;28;20034;-67
2022/09/07 16:07:58;;;;;;;3.67;2.80;;;;;;;;;;5032844;28;20053;-67
2022/09/07 16:10:43;;;;;;;3.10;2.13;;;;;;;;;;5040060;28;20130;-67
2022/09/07 16:13:27;;;;;;;4.28;2.40;;;;;;;;;;5047222;28;20041;-67
2022/09/07 16:16:12;;;;;;;6.05;2.38;;;;;;;;;;5048177;28;21769;-67
2022/09/07 16:18:57;;;;;;;3.92;2.60;;;;;;;;;;5047369;28;20036;-58
2022/09/07 16:21:42;;;;;;;3.92;2.35;;;;;;;;;;5033473;28;20041;-63
2022/09/07 16:24:27;;;;;;;5.47;2.65;;;;;;;;;;5050863;28;20116;-65
2022/09/07 16:27:11;;;;;;;3.55;2.60;;;;;;;;;;5049394;28;20111;-66
2022/09/07 16:29:56;;;;;;;4.13;2.85;;;;;;;;;;5048419;28;20071;-67
2022/09/07 16:32:40;;;;;;;3.67;2.28;;;;;;;;;;5047538;28;20045;-66
2022/09/07 16:35:25;;;;;;;5.90;2.72;;;;;;;;;;5042031;28;20035;-70
2022/09/07 16:38:09;;;;;;;4.30;2.80;;;;;;;;;;5054554;28;20041;-67
2022/09/07 16:40:54;;;;;;;6.88;2.60;;;;;;;;;;5042605;28;20036;-68
2022/09/07 16:43:38;;;;;;;2.33;1.92;;;;;;;;;;5077268;28;20412;-67
2022/09/07 16:46:24;;;;;;;4.60;2.30;;;;;;;;;;5073950;28;20049;-66
2022/09/07 16:49:09;;;;;;;3.92;2.30;;;;;;;;;;5048821;28;20067;-66